Time;durP1;ratioP1;P1;durP2;ratioP2;P2;SDS_P1;SDS_P2;PMS_P1;PMS_P2;Temp;Humidity;BMP_temperature;BMP_pressure;BME280_temperature;BME280_humidity;BME280_pressure;Samples;Min_cycle;Max_cycle;Signal;HPM_P1;HPM_P2
2021/10/30 00:01:07;;;;;;;37.37;25.60;;;;;;;6.07;68.47;102408.91;6121026;23;20159;-61
2021/10/30 00:03:32;;;;;;;32.50;25.17;;;;;;;5.74;67.79;102369.94;6121281;23;20177;-62
2021/10/30 00:05:58;;;;;;;38.13;25.60;;;;;;;5.96;67.26;102399.59;6119658;23;20476;-61
2021/10/30 00:08:28;;;;;;;35.23;24.87;;;;;;;6.04;67.15;102414.31;6120672;23;20516;-61
2021/10/30 00:10:54;;;;;;;31.30;23.97;;;;;;;6.03;67.16;102424.53;6121032;23;20680;-61
2021/10/30 00:13:19;;;;;;;30.73;24.13;;;;;;;6.01;67.30;102423.28;6120803;23;20155;-61
2021/10/30 00:15:44;;;;;;;32.73;23.70;;;;;;;6.02;67.45;102427.63;6119236;23;20233;-61
2021/10/30 00:18:10;;;;;;;30.77;22.93;;;;;;;5.95;66.48;102424.72;6120917;23;20495;-61
2021/10/30 00:20:35;;;;;;;30.80;22.80;;;;;;;5.96;66.54;102431.81;6120762;23;20159;-61
2021/10/30 00:23:01;;;;;;;32.17;24.10;;;;;;;5.89;66.60;102432.44;6095289;23;20245;-61
2021/10/30 00:25:27;;;;;;;34.67;23.67;;;;;;;5.88;66.40;102432.78;6120703;23;20185;-61
2021/10/30 00:27:52;;;;;;;31.33;23.07;;;;;;;5.85;66.45;102428.03;6119794;23;20161;-61
2021/10/30 00:30:18;;;;;;;34.30;23.23;;;;;;;5.83;66.68;102428.38;6120557;23;20229;-61
2021/10/30 00:32:43;;;;;;;29.63;22.00;;;;;;;5.81;66.87;102425.19;6122214;23;20151;-61
2021/10/30 00:35:09;;;;;;;35.17;23.23;;;;;;;5.69;66.92;102407.97;6096068;23;20184;-61
2021/10/30 00:37:34;;;;;;;31.40;22.77;;;;;;;5.81;66.62;102427.94;6122068;23;20378;-61
2021/10/30 00:40:00;;;;;;;36.03;25.37;;;;;;;5.75;66.46;102439.53;6122525;23;20165;-61
2021/10/30 00:42:25;;;;;;;33.10;24.30;;;;;;;5.69;67.16;102424.47;6122380;23;20158;-61
2021/10/30 00:44:51;;;;;;;37.67;25.00;;;;;;;5.67;67.23;102422.06;6122193;23;20158;-61
2021/10/30 00:47:16;;;;;;;31.90;24.50;;;;;;;5.64;66.99;102420.00;6121433;23;20232;-61
2021/10/30 00:49:43;;;;;;;35.10;24.73;;;;;;;5.68;67.31;102436.59;6122271;23;20223;-61
2021/10/30 00:52:09;;;;;;;30.87;24.10;;;;;;;5.32;67.09;102379.94;6096487;23;20162;-61
2021/10/30 00:54:37;;;;;;;32.63;23.83;;;;;;;5.59;67.40;102434.03;6095801;23;20186;-61
2021/10/30 00:57:03;;;;;;;31.73;22.73;;;;;;;5.58;66.88;102439.88;6121718;23;20169;-61
2021/10/30 00:59:28;;;;;;;32.50;21.93;;;;;;;5.54;66.55;102437.03;6096312;23;20236;-61
2021/10/30 01:01:54;;;;;;;34.60;23.67;;;;;;;5.48;67.12;102432.97;6122277;23;20157;-61
2021/10/30 01:04:20;;;;;;;36.37;23.37;;;;;;;5.50;66.84;102440.88;6122405;23;20157;-61
2021/10/30 01:06:50;;;;;;;35.33;22.70;;;;;;;5.44;67.34;102447.78;6121174;23;20546;-61
2021/10/30 01:09:18;;;;;;;38.87;23.90;;;;;;;5.42;67.25;102437.13;6122031;23;20180;-61
2021/10/30 01:11:43;;;;;;;33.67;24.07;;;;;;;5.03;67.45;102385.84;6122098;23;20182;-61
2021/10/30 01:14:10;;;;;;;34.73;23.77;;;;;;;5.37;67.67;102439.34;6122299;23;20262;-61
2021/10/30 01:16:36;;;;;;;34.03;24.23;;;;;;;5.32;68.77;102440.41;6121146;23;20665;-61
2021/10/30 01:19:02;;;;;;;30.77;21.60;;;;;;;4.88;67.81;102378.34;6122427;23;20189;-62
2021/10/30 01:21:35;;;;;;;32.50;22.60;;;;;;;5.28;67.93;102427.72;6122480;23;20552;-61
2021/10/30 01:24:06;;;;;;;29.93;22.23;;;;;;;5.34;67.46;102448.31;6122083;23;20166;-61
2021/10/30 01:26:31;;;;;;;32.60;22.00;;;;;;;5.31;67.91;102446.25;6121069;23;20153;-61
2021/10/30 01:28:59;;;;;;;34.70;24.70;;;;;;;5.30;70.42;102447.41;6096173;23;20231;-61
2021/10/30 01:31:25;;;;;;;33.93;22.20;;;;;;;5.30;68.79;102442.72;6121993;23;20158;-61
2021/10/30 01:33:51;;;;;;;34.60;23.97;;;;;;;5.04;69.29;102400.38;6121845;23;20505;-61
2021/10/30 01:36:20;;;;;;;38.03;24.73;;;;;;;5.30;70.68;102444.66;6120974;23;20186;-61
2021/10/30 01:38:46;;;;;;;32.20;22.60;;;;;;;5.29;70.07;102441.09;6121903;23;20242;-61
2021/10/30 01:41:12;;;;;;;35.37;25.20;;;;;;;5.34;71.09;102440.84;6121873;23;20581;-61
2021/10/30 01:43:38;;;;;;;32.63;25.07;;;;;;;5.30;70.24;102431.72;6095782;23;20612;-61
2021/10/30 01:46:04;;;;;;;40.40;28.17;;;;;;;5.44;72.35;102447.78;6120562;23;20553;-61
2021/10/30 01:48:31;;;;;;;37.07;24.70;;;;;;;5.45;71.35;102450.19;6122173;23;20151;-61
2021/10/30 01:50:57;;;;;;;36.23;26.63;;;;;;;5.49;71.56;102442.03;6121659;23;20162;-61
2021/10/30 01:53:23;;;;;;;44.63;28.03;;;;;;;5.53;71.18;102451.16;6121550;23;20161;-61
2021/10/30 01:55:49;;;;;;;31.87;24.10;;;;;;;5.57;69.24;102444.59;6120484;23;20178;-61
2021/10/30 01:58:15;;;;;;;30.70;22.10;;;;;;;5.62;69.42;102447.09;6121897;23;20174;-61
2021/10/30 02:00:42;;;;;;;35.20;23.77;;;;;;;5.62;68.44;102440.78;6095222;23;20221;-61
2021/10/30 02:03:08;;;;;;;35.73;24.57;;;;;;;5.57;67.31;102430.84;6122446;23;20561;-61
2021/10/30 02:05:33;;;;;;;31.50;22.60;;;;;;;5.64;67.14;102443.97;6121795;23;20177;-61
2021/10/30 02:07:59;;;;;;;33.87;23.20;;;;;;;5.34;66.87;102394.09;6120941;23;20155;-61
2021/10/30 02:10:25;;;;;;;34.13;22.73;;;;;;;5.60;67.05;102437.59;6121574;23;20162;-61
2021/10/30 02:12:51;;;;;;;27.73;20.07;;;;;;;5.45;66.27;102430.13;6121544;23;20166;-61
2021/10/30 02:15:16;;;;;;;34.43;21.83;;;;;;;5.25;65.48;102406.44;6095183;23;20279;-61
2021/10/30 02:17:42;;;;;;;30.90;20.53;;;;;;;5.21;65.01;102411.03;6120886;23;20164;-61
2021/10/30 02:20:09;;;;;;;34.57;22.60;;;;;;;5.38;65.38;102446.47;6121865;23;20154;-61
2021/10/30 02:22:36;;;;;;;29.03;21.43;;;;;;;5.31;65.77;102444.31;6121984;23;20636;-61
2021/10/30 02:25:03;;;;;;;30.27;21.80;;;;;;;5.26;66.30;102441.81;6121095;23;20150;-61
2021/10/30 02:27:29;;;;;;;34.37;22.07;;;;;;;5.22;66.54;102451.09;6121067;23;20150;-61
2021/10/30 02:29:54;;;;;;;41.70;24.43;;;;;;;5.15;66.82;102449.00;6121357;23;20242;-61
2021/10/30 02:32:19;;;;;;;36.33;22.20;;;;;;;5.17;66.65;102454.13;6121671;23;20158;-61
2021/10/30 02:34:45;;;;;;;28.60;21.10;;;;;;;5.13;65.26;102454.03;6120814;23;20694;-61
2021/10/30 02:37:11;;;;;;;30.00;21.43;;;;;;;5.07;65.37;102460.16;6120652;23;20174;-61
2021/10/30 02:39:36;;;;;;;32.30;21.63;;;;;;;4.98;65.09;102451.25;6121673;23;20167;-61
2021/10/30 02:42:02;;;;;;;31.43;21.03;;;;;;;4.49;65.36;102395.72;6121081;23;20162;-61
2021/10/30 02:44:28;;;;;;;31.03;23.50;;;;;;;4.82;65.83;102464.94;6121604;23;20161;-61
2021/10/30 02:46:53;;;;;;;29.80;22.83;;;;;;;4.45;66.56;102408.53;6119946;23;20201;-61
2021/10/30 02:49:20;;;;;;;35.33;23.70;;;;;;;4.76;66.75;102469.06;6121392;23;20176;-61
2021/10/30 02:51:45;;;;;;;32.27;23.53;;;;;;;4.76;67.06;102468.25;6121315;23;20162;-61
2021/10/30 02:54:11;;;;;;;32.37;22.23;;;;;;;4.71;67.24;102463.81;6120818;23;20242;-61
2021/10/30 02:56:36;;;;;;;30.57;22.73;;;;;;;4.70;66.94;102470.47;6120123;23;20440;-61
2021/10/30 02:59:02;;;;;;;34.70;22.93;;;;;;;4.55;66.85;102451.16;6121197;23;20165;-61
2021/10/30 03:01:28;;;;;;;33.27;22.40;;;;;;;4.20;67.42;102400.72;6121526;23;20237;-61
2021/10/30 03:03:53;;;;;;;33.57;22.30;;;;;;;4.21;67.73;102410.56;6121195;23;20163;-61
2021/10/30 03:06:21;;;;;;;34.47;22.77;;;;;;;4.36;67.61;102446.28;6119817;23;20157;-61
2021/10/30 03:08:48;;;;;;;33.90;22.33;;;;;;;4.60;67.74;102476.44;6121677;23;20500;-61
2021/10/30 03:11:14;;;;;;;34.93;22.90;;;;;;;4.61;68.04;102480.00;6120847;23;20181;-61
2021/10/30 03:13:40;;;;;;;36.30;22.93;;;;;;;4.60;67.57;102473.69;6121014;23;20213;-61
2021/10/30 03:16:05;;;;;;;30.00;21.93;;;;;;;4.59;68.01;102471.28;6120130;23;20182;-61
2021/10/30 03:18:31;;;;;;;41.20;23.33;;;;;;;4.57;67.78;102479.88;6121074;23;20157;-61
2021/10/30 03:20:56;;;;;;;29.43;21.93;;;;;;;4.49;67.87;102458.06;6095256;23;20170;-61
2021/10/30 03:23:22;;;;;;;33.93;23.03;;;;;;;4.20;67.41;102423.47;6120979;23;20604;-61
2021/10/30 03:25:47;;;;;;;31.60;22.53;;;;;;;4.52;68.00;102480.13;6119490;23;20153;-62
2021/10/30 03:28:13;;;;;;;30.80;20.53;;;;;;;4.51;67.80;102481.28;6095234;23;20506;-61
2021/10/30 03:30:42;;;;;;;30.73;21.13;;;;;;;4.40;67.55;102460.13;6121158;23;20154;-61
2021/10/30 03:33:07;;;;;;;32.07;22.13;;;;;;;4.49;67.20;102472.59;6094821;23;20224;-61
2021/10/30 03:35:33;;;;;;;36.80;23.57;;;;;;;4.47;67.33;102480.34;6120400;23;20178;-61
2021/10/30 03:37:58;;;;;;;37.10;22.73;;;;;;;4.41;68.28;102464.50;6120432;23;20257;-61
2021/10/30 03:40:24;;;;;;;35.73;22.33;;;;;;;4.47;68.05;102480.34;6120714;23;20610;-61
2021/10/30 03:42:49;;;;;;;32.63;21.53;;;;;;;4.48;68.17;102475.69;6120973;23;20165;-61
2021/10/30 03:45:14;;;;;;;33.67;21.33;;;;;;;4.47;67.46;102477.59;6120530;23;20152;-61
2021/10/30 03:47:40;;;;;;;32.97;22.47;;;;;;;4.10;68.10;102417.66;6120048;23;20285;-61
2021/10/30 03:50:06;;;;;;;34.53;22.00;;;;;;;4.37;67.69;102480.81;6121530;23;20408;-61
2021/10/30 03:52:31;;;;;;;35.10;22.50;;;;;;;4.41;67.76;102484.50;6120984;23;20229;-61
2021/10/30 03:54:57;;;;;;;33.00;22.13;;;;;;;4.42;67.35;102483.34;6120565;23;20662;-61
2021/10/30 03:57:22;;;;;;;32.47;22.93;;;;;;;4.43;66.96;102497.88;6119992;23;20167;-61
2021/10/30 03:59:48;;;;;;;33.07;21.30;;;;;;;4.42;67.14;102490.78;6120865;23;20670;-61
2021/10/30 04:02:14;;;;;;;33.37;22.93;;;;;;;4.41;67.23;102492.72;6120919;23;20618;-62
2021/10/30 04:04:39;;;;;;;35.83;23.97;;;;;;;4.04;67.65;102440.97;6095014;23;20246;-61
2021/10/30 04:07:05;;;;;;;32.73;22.50;;;;;;;4.21;67.54;102479.16;6120996;23;20212;-61
2021/10/30 04:09:30;;;;;;;28.43;22.03;;;;;;;4.37;67.41;102491.81;6123158;23;20149;-61
2021/10/30 04:11:56;;;;;;;32.17;21.87;;;;;;;4.36;67.57;102494.94;6122849;23;20176;-61
2021/10/30 04:14:22;;;;;;;31.03;20.93;;;;;;;4.10;67.04;102462.34;6122452;23;20185;-61
2021/10/30 04:16:48;;;;;;;27.33;20.37;;;;;;;4.32;66.67;102496.75;6121579;23;20161;-61
2021/10/30 04:19:15;;;;;;;27.07;20.37;;;;;;;3.97;66.73;102444.31;6096886;23;20626;-62
2021/10/30 04:21:44;;;;;;;32.13;22.77;;;;;;;4.27;67.22;102497.78;6122737;23;20152;-61
2021/10/30 04:24:10;;;;;;;34.13;22.77;;;;;;;4.04;67.71;102466.47;6122809;23;20592;-61
2021/10/30 04:26:35;;;;;;;34.17;22.07;;;;;;;4.24;67.02;102484.75;6122105;23;20235;-62
2021/10/30 04:29:02;;;;;;;46.33;23.17;;;;;;;4.24;67.93;102497.66;6122257;23;20248;-61
2021/10/30 04:31:29;;;;;;;36.40;23.63;;;;;;;4.22;68.89;102495.28;6123034;23;20165;-62
2021/10/30 04:34:02;;;;;;;33.20;23.33;;;;;;;4.24;68.02;102487.50;6122329;23;20229;-61
2021/10/30 04:36:29;;;;;;;36.33;23.33;;;;;;;4.10;67.89;102472.53;6095322;23;20229;-62
2021/10/30 04:38:56;;;;;;;32.97;23.67;;;;;;;4.24;67.91;102494.91;6096663;23;20244;-61
2021/10/30 04:41:22;;;;;;;38.47;22.80;;;;;;;4.20;67.61;102494.81;6122678;23;20156;-62
2021/10/30 04:43:48;;;;;;;36.37;23.77;;;;;;;3.86;69.63;102453.34;6122426;23;20158;-62
2021/10/30 04:46:16;;;;;;;35.20;22.90;;;;;;;4.21;68.85;102504.63;6121188;23;20276;-61
2021/10/30 04:48:42;;;;;;;35.23;22.17;;;;;;;4.22;68.16;102495.28;6122733;23;20156;-61
2021/10/30 04:51:08;;;;;;;38.67;23.23;;;;;;;4.22;68.37;102495.28;6122757;23;20153;-61
2021/10/30 04:53:35;;;;;;;36.07;23.97;;;;;;;4.23;67.61;102501.56;6122545;23;20162;-61
2021/10/30 04:56:01;;;;;;;36.73;24.13;;;;;;;3.96;67.58;102472.09;6121501;23;20456;-61
2021/10/30 04:58:28;;;;;;;38.03;23.53;;;;;;;4.21;68.06;102501.91;6122378;23;20234;-62
2021/10/30 05:00:53;;;;;;;29.87;21.10;;;;;;;4.23;67.21;102504.31;6122510;23;20639;-61
2021/10/30 05:03:19;;;;;;;29.70;21.30;;;;;;;4.25;67.01;102510.25;6122333;23;20157;-61
2021/10/30 05:05:44;;;;;;;44.70;24.47;;;;;;;4.18;68.49;102496.31;6121391;23;20160;-61
2021/10/30 05:08:10;;;;;;;40.47;28.37;;;;;;;3.64;69.81;102440.09;6123108;23;20187;-61
2021/10/30 05:10:36;;;;;;;45.10;29.77;;;;;;;4.04;71.77;102510.38;6096844;23;20193;-61
2021/10/30 05:13:01;;;;;;;41.40;29.13;;;;;;;4.08;72.85;102514.03;6122322;23;20246;-62
2021/10/30 05:15:27;;;;;;;42.67;29.57;;;;;;;3.96;72.46;102483.06;6122251;23;20515;-61
2021/10/30 05:17:52;;;;;;;46.23;25.70;;;;;;;3.83;71.45;102449.34;6121584;23;20171;-61
2021/10/30 05:20:18;;;;;;;37.37;24.93;;;;;;;4.33;70.37;102506.59;6122583;23;20161;-61
2021/10/30 05:22:43;;;;;;;36.33;25.00;;;;;;;4.37;69.08;102511.03;6096687;23;20165;-61
2021/10/30 05:25:09;;;;;;;45.57;25.73;;;;;;;4.42;68.21;102510.00;6121751;23;20213;-61
2021/10/30 05:27:35;;;;;;;35.90;22.80;;;;;;;4.46;67.94;102517.19;6121685;23;20516;-62
2021/10/30 05:30:00;;;;;;;38.37;27.90;;;;;;;4.34;68.40;102500.75;6122610;23;20157;-61
2021/10/30 05:32:26;;;;;;;36.50;25.37;;;;;;;4.45;67.93;102515.59;6122325;23;20387;-61
2021/10/30 05:34:51;;;;;;;43.17;25.40;;;;;;;4.49;67.95;102519.25;6121389;23;20179;-61
2021/10/30 05:37:17;;;;;;;42.50;25.10;;;;;;;4.50;67.79;102520.84;6121609;23;20164;-62
2021/10/30 05:39:43;;;;;;;37.03;24.13;;;;;;;4.15;67.32;102467.59;6122161;23;20150;-62
2021/10/30 05:42:10;;;;;;;39.63;23.67;;;;;;;4.06;67.58;102453.19;6122327;23;20506;-61
2021/10/30 05:44:37;;;;;;;35.53;24.40;;;;;;;4.54;66.68;102530.00;6121809;23;20164;-62
2021/10/30 05:47:08;;;;;;;40.50;24.93;;;;;;;4.32;66.71;102488.53;6121319;23;20209;-62
2021/10/30 05:49:37;;;;;;;36.07;24.40;;;;;;;4.29;66.82;102498.25;6122347;23;20154;-61
2021/10/30 05:52:02;;;;;;;33.23;23.17;;;;;;;4.57;66.84;102526.56;6122318;23;20158;-61
2021/10/30 05:54:28;;;;;;;31.40;22.90;;;;;;;4.56;66.79;102527.72;6121927;23;20236;-61
2021/10/30 05:56:54;;;;;;;31.60;23.00;;;;;;;4.59;66.38;102537.19;6120869;23;20165;-61
2021/10/30 05:59:20;;;;;;;33.97;23.07;;;;;;;4.40;66.88;102504.84;6121807;23;20489;-61
2021/10/30 06:01:45;;;;;;;40.67;26.40;;;;;;;4.13;69.44;102480.06;6122056;23;20181;-61
2021/10/30 06:04:11;;;;;;;38.20;27.53;;;;;;;3.91;70.73;102450.38;6095611;23;20169;-62
2021/10/30 06:06:36;;;;;;;40.73;26.37;;;;;;;4.52;70.50;102540.53;6120570;23;20166;-61
2021/10/30 06:09:02;;;;;;;38.97;26.83;;;;;;;4.64;69.90;102548.75;6095884;23;20627;-61
2021/10/30 06:11:28;;;;;;;39.37;27.87;;;;;;;4.73;68.93;102556.88;6121860;23;20195;-62
2021/10/30 06:13:53;;;;;;;38.10;27.97;;;;;;;4.57;68.37;102512.81;6122335;23;20157;-61
2021/10/30 06:16:18;;;;;;;44.30;27.53;;;;;;;4.99;68.64;102549.81;6119977;23;20627;-62
2021/10/30 06:18:44;;;;;;;43.83;27.67;;;;;;;5.05;68.92;102542.13;6095520;23;20165;-62
2021/10/30 06:21:10;;;;;;;39.53;27.13;;;;;;;5.23;68.97;102555.22;6121865;23;20223;-61
2021/10/30 06:23:36;;;;;;;38.20;27.90;;;;;;;5.38;69.01;102556.44;6122415;23;20589;-61
2021/10/30 06:26:02;;;;;;;38.40;26.57;;;;;;;5.51;68.36;102557.97;6120221;23;20461;-61
2021/10/30 06:28:28;;;;;;;40.60;27.23;;;;;;;5.24;68.66;102492.81;6121583;23;20583;-61
2021/10/30 06:30:53;;;;;;;40.07;28.83;;;;;;;5.13;68.35;102461.47;6121159;23;20154;-61
2021/10/30 06:33:19;;;;;;;41.87;28.87;;;;;;;5.85;68.33;102554.59;6121299;23;20181;-61
2021/10/30 06:35:45;;;;;;;46.50;30.37;;;;;;;6.01;67.88;102558.16;6119851;23;20174;-61
2021/10/30 06:38:12;;;;;;;44.90;31.03;;;;;;;6.13;67.47;102550.59;6095209;23;20503;-61
2021/10/30 06:40:37;;;;;;;42.53;32.43;;;;;;;6.25;67.85;102557.97;6121620;23;20162;-61
2021/10/30 06:43:03;;;;;;;49.30;34.50;;;;;;;6.17;67.79;102539.69;6095766;23;20264;-62
2021/10/30 06:45:28;;;;;;;45.50;34.47;;;;;;;6.45;67.18;102554.91;6121027;23;20149;-61
2021/10/30 06:47:54;;;;;;;54.47;37.03;;;;;;;6.55;67.29;102554.38;6120350;23;20549;-61
2021/10/30 06:50:22;;;;;;;55.73;39.27;;;;;;;6.44;67.29;102558.84;6121647;23;20154;-62
2021/10/30 06:52:53;;;;;;;55.47;39.13;;;;;;;6.47;66.97;102547.09;6121353;23;20154;-61
2021/10/30 06:55:20;;;;;;;60.93;41.87;;;;;;;6.59;66.85;102552.50;6120814;23;20588;-61
2021/10/30 06:57:47;;;;;;;57.10;41.10;;;;;;;6.78;66.79;102560.00;6120522;23;20595;-61
2021/10/30 07:00:13;;;;;;;63.60;43.83;;;;;;;6.70;66.74;102531.50;6121147;23;20182;-62
2021/10/30 07:02:40;;;;;;;65.47;43.20;;;;;;;7.02;66.66;102562.50;6121363;23;20150;-62
2021/10/30 07:05:07;;;;;;;55.20;39.67;;;;;;;6.81;66.64;102512.44;6120677;23;20154;-61
2021/10/30 07:07:33;;;;;;;58.37;39.23;;;;;;;7.31;66.87;102572.94;6095047;23;20158;-61
2021/10/30 07:09:59;;;;;;;65.20;44.03;;;;;;;7.48;66.50;102569.78;6121377;23;20159;-61
2021/10/30 07:12:33;;;;;;;71.97;44.57;;;;;;;7.63;66.68;102569.66;6121291;23;20155;-62
2021/10/30 07:14:59;;;;;;;61.77;44.07;;;;;;;7.49;66.76;102524.47;6120479;23;20185;-61
2021/10/30 07:17:24;;;;;;;60.07;44.57;;;;;;;7.93;66.67;102567.03;6120218;23;20158;-62
2021/10/30 07:19:51;;;;;;;61.47;43.97;;;;;;;8.02;66.70;102568.41;6121017;23;20171;-61
2021/10/30 07:22:17;;;;;;;56.47;43.07;;;;;;;8.21;66.66;102570.34;6121192;23;20152;-61
2021/10/30 07:25:02;;;;;;;57.07;41.67;;;;;;;8.32;66.33;102577.63;6120714;23;20191;-62
2021/10/30 07:27:28;;;;;;;53.90;39.23;;;;;;;8.50;65.97;102581.47;6120012;23;20141;-62
2021/10/30 07:29:53;;;;;;;53.13;38.40;;;;;;;8.60;65.94;102569.78;6121114;23;20454;-61
2021/10/30 07:32:20;;;;;;;49.57;37.73;;;;;;;8.77;65.30;102551.88;6121034;23;20160;-61
2021/10/30 07:34:46;;;;;;;50.90;38.70;;;;;;;9.04;65.19;102570.00;6094506;23;20191;-61
2021/10/30 07:37:11;;;;;;;50.87;38.77;;;;;;;9.15;64.96;102562.63;6093843;23;20249;-62
2021/10/30 07:39:37;;;;;;;51.83;39.93;;;;;;;8.82;65.33;102505.31;6121055;23;20223;-61
2021/10/30 07:42:04;;;;;;;54.07;38.93;;;;;;;9.38;64.97;102568.88;6123067;23;20616;-61
2021/10/30 07:44:30;;;;;;;57.37;41.73;;;;;;;9.55;64.63;102571.03;6123357;23;20157;-62
2021/10/30 07:46:55;;;;;;;60.13;42.50;;;;;;;9.55;65.39;102574.59;6121758;23;20612;-62
2021/10/30 07:49:21;;;;;;;59.87;41.53;;;;;;;9.70;65.00;102575.56;6123144;23;20625;-61
2021/10/30 07:51:46;;;;;;;48.80;38.67;;;;;;;9.90;64.71;102574.97;6123132;23;20155;-61
2021/10/30 07:54:12;;;;;;;53.93;39.93;;;;;;;10.02;64.82;102571.13;6122925;23;20151;-62
2021/10/30 07:56:37;;;;;;;55.63;41.00;;;;;;;10.02;64.54;102563.63;6121531;23;20619;-62
2021/10/30 07:59:03;;;;;;;56.80;40.83;;;;;;;10.15;64.50;102569.69;6096550;23;20226;-61
2021/10/30 08:01:29;;;;;;;60.37;42.20;;;;;;;10.24;64.51;102568.19;6097182;23;20236;-62
2021/10/30 08:03:54;;;;;;;56.53;40.43;;;;;;;9.86;64.14;102484.72;6123595;23;20164;-62
2021/10/30 08:06:20;;;;;;;51.03;40.97;;;;;;;10.42;64.16;102560.00;6121230;23;20232;-61
2021/10/30 08:08:45;;;;;;;56.80;41.17;;;;;;;10.52;63.99;102562.88;6122924;23;20181;-61
2021/10/30 08:11:10;;;;;;;52.57;40.27;;;;;;;10.67;63.91;102569.31;6122787;23;20154;-62
2021/10/30 08:13:36;;;;;;;54.70;41.57;;;;;;;10.78;63.85;102567.38;6122700;23;20250;-61
2021/10/30 08:16:02;;;;;;;59.83;43.67;;;;;;;10.89;63.37;102557.16;6121327;23;20183;-62
2021/10/30 08:18:27;;;;;;;54.87;42.60;;;;;;;11.04;62.87;102558.81;6122865;23;20244;-62
2021/10/30 08:20:53;;;;;;;49.13;38.50;;;;;;;11.12;62.14;102557.69;6122818;23;20168;-62
2021/10/30 08:23:18;;;;;;;48.50;39.20;;;;;;;11.15;62.24;102549.38;6122665;23;20217;-62
2021/10/30 08:25:44;;;;;;;58.20;42.00;;;;;;;11.36;62.13;102566.09;6121451;23;20159;-62
2021/10/30 08:28:09;;;;;;;50.40;36.73;;;;;;;11.50;61.42;102560.59;6122535;23;20185;-62
2021/10/30 08:30:35;;;;;;;54.53;39.10;;;;;;;11.67;60.90;102564.63;6122527;23;20165;-62
2021/10/30 08:33:00;;;;;;;49.83;38.17;;;;;;;11.53;60.40;102520.94;6122634;23;20162;-62
2021/10/30 08:35:26;;;;;;;45.70;34.23;;;;;;;11.97;59.72;102565.06;6122178;23;20170;-61
2021/10/30 08:37:51;;;;;;;47.50;35.00;;;;;;;12.07;59.61;102551.22;6121286;23;20161;-61
2021/10/30 08:40:17;;;;;;;46.87;33.63;;;;;;;12.16;59.26;102545.25;6122470;23;20180;-62
2021/10/30 08:42:50;;;;;;;43.33;33.53;;;;;;;12.36;58.77;102558.38;6122530;23;20190;-62
2021/10/30 08:45:16;;;;;;;45.17;33.67;;;;;;;12.41;58.68;102552.38;6122127;23;20150;-62
2021/10/30 08:47:45;;;;;;;41.90;32.87;;;;;;;12.51;58.17;102548.78;6121257;23;20226;-62
2021/10/30 08:50:11;;;;;;;41.13;31.77;;;;;;;12.56;58.03;102553.16;6122657;23;20212;-62
2021/10/30 08:52:37;;;;;;;41.83;31.57;;;;;;;12.52;58.00;102547.63;6096074;23;20166;-62
2021/10/30 08:55:04;;;;;;;39.43;31.17;;;;;;;12.64;58.02;102551.94;6121836;23;20265;-62
2021/10/30 08:57:30;;;;;;;39.70;30.90;;;;;;;12.72;58.03;102553.53;6121644;23;20166;-62
2021/10/30 09:00:15;;;;;;;42.43;30.23;;;;;;;12.60;58.52;102546.41;6122094;23;20242;-62
2021/10/30 09:02:41;;;;;;;36.07;29.40;;;;;;;12.55;59.09;102546.81;6122507;23;20197;-62
2021/10/30 09:05:16;;;;;;;41.97;32.03;;;;;;;12.71;58.44;102551.94;6122549;23;20151;-62
2021/10/30 09:07:46;;;;;;;42.53;33.40;;;;;;;12.78;58.39;102544.38;6095102;23;20161;-62
2021/10/30 09:10:21;;;;;;;46.60;34.77;;;;;;;12.88;57.95;102540.78;6123049;23;20620;-62
2021/10/30 09:12:54;;;;;;;51.43;38.13;;;;;;;13.02;57.75;102543.53;6122157;23;20494;-62
2021/10/30 09:15:32;;;;;;;53.73;41.97;;;;;;;13.07;57.90;102534.00;6121828;23;20289;-62
2021/10/30 09:17:58;;;;;;;58.33;40.87;;;;;;;13.12;58.21;102541.91;6095087;23;20692;-62
2021/10/30 09:20:51;;;;;;;53.17;41.63;;;;;;;12.95;58.67;102520.47;6122016;23;20159;-62
2021/10/30 09:23:20;;;;;;;53.37;39.73;;;;;;;13.23;58.28;102532.31;6092472;23;20165;-62
2021/10/30 09:26:08;;;;;;;52.27;39.37;;;;;;;13.40;57.96;102539.81;6121033;23;20207;-62
2021/10/30 09:28:48;;;;;;;51.83;39.70;;;;;;;13.46;57.73;102540.16;6096017;23;20147;-62
2021/10/30 09:31:13;;;;;;;45.93;33.33;;;;;;;13.54;57.41;102536.94;6122021;23;20585;-62
2021/10/30 09:33:52;;;;;;;43.80;34.00;;;;;;;13.51;57.66;102529.38;6122094;23;20161;-62
2021/10/30 09:36:18;;;;;;;47.60;34.53;;;;;;;13.70;56.95;102528.88;6120442;23;20183;-62
2021/10/30 09:38:45;;;;;;;47.83;36.47;;;;;;;13.75;56.88;102508.16;6095684;23;20764;-62
2021/10/30 09:41:35;;;;;;;50.03;37.27;;;;;;;13.90;56.55;102532.72;6122271;23;20157;-62
2021/10/30 09:44:07;;;;;;;50.60;36.93;;;;;;;13.77;57.06;102523.25;6122105;23;20143;-62
2021/10/30 09:46:35;;;;;;;49.37;36.43;;;;;;;13.92;56.45;102521.16;6120866;23;20186;-62
2021/10/30 09:49:14;;;;;;;47.00;35.03;;;;;;;14.02;56.63;102515.50;6121619;23;20154;-62
2021/10/30 09:51:41;;;;;;;45.20;32.43;;;;;;;14.15;56.60;102501.84;6122015;23;20391;-62
2021/10/30 09:54:07;;;;;;;44.90;33.27;;;;;;;14.08;56.46;102474.81;6121630;23;20157;-62
2021/10/30 09:56:49;;;;;;;41.80;33.07;;;;;;;14.45;55.76;102496.44;6120742;23;20184;-62
2021/10/30 09:59:18;;;;;;;41.73;32.30;;;;;;;14.55;55.52;102495.53;6121388;23;20622;-63
2021/10/30 10:01:49;;;;;;;43.63;32.47;;;;;;;14.33;55.69;102463.44;6121876;23;20152;-62
2021/10/30 10:04:16;;;;;;;40.53;30.63;;;;;;;14.66;55.29;102485.03;6121182;23;20161;-62
2021/10/30 10:06:44;;;;;;;41.10;30.47;;;;;;;14.41;55.28;102431.50;6094643;23;20620;-62
2021/10/30 10:09:11;;;;;;;44.20;30.57;;;;;;;14.78;55.24;102482.50;6095622;23;20622;-62
2021/10/30 10:11:56;;;;;;;35.97;29.30;;;;;;;14.82;55.04;102482.44;6121795;23;20800;-62
2021/10/30 10:14:22;;;;;;;38.33;30.10;;;;;;;14.73;55.25;102477.38;6121537;23;20145;-62
2021/10/30 10:16:52;;;;;;;37.00;29.30;;;;;;;14.89;54.93;102476.78;6120254;23;20165;-62
2021/10/30 10:19:19;;;;;;;38.47;28.97;;;;;;;14.86;55.04;102481.19;6121266;23;20157;-62
2021/10/30 10:21:45;;;;;;;38.77;28.73;;;;;;;14.86;55.19;102477.63;6121733;23;20616;-62
2021/10/30 10:24:13;;;;;;;41.10;29.37;;;;;;;14.71;55.36;102460.22;6121511;23;20152;-62
2021/10/30 10:26:52;;;;;;;38.13;28.17;;;;;;;14.88;55.04;102466.81;6120379;23;20160;-62
2021/10/30 10:29:36;;;;;;;40.17;28.83;;;;;;;14.99;55.20;102468.28;6121244;23;20180;-62
2021/10/30 10:32:01;;;;;;;38.50;29.97;;;;;;;15.02;55.38;102453.47;6121564;23;20164;-62
2021/10/30 10:34:38;;;;;;;37.93;29.10;;;;;;;15.09;54.82;102467.34;6121191;23;20530;-62
2021/10/30 10:37:14;;;;;;;39.63;29.13;;;;;;;15.28;54.71;102455.53;6120673;23;20453;-62
2021/10/30 10:39:41;;;;;;;39.60;29.33;;;;;;;15.39;54.06;102449.78;6121114;23;20181;-62
2021/10/30 10:42:13;;;;;;;37.10;28.47;;;;;;;15.41;54.15;102436.19;6121357;23;20153;-62
2021/10/30 10:44:42;;;;;;;37.43;28.93;;;;;;;15.44;54.38;102436.16;6121162;23;20153;-62
2021/10/30 10:47:10;;;;;;;39.50;28.00;;;;;;;15.17;54.08;102390.63;6120231;23;20289;-62
2021/10/30 10:52:19;;;;;;;34.63;28.20;;;;;;;14.99;54.55;102367.75;6121574;23;20667;-62
2021/10/30 10:54:58;;;;;;;35.93;27.87;;;;;;;15.45;54.78;102429.34;6120632;23;20169;-62
2021/10/30 10:57:29;;;;;;;37.70;28.03;;;;;;;15.51;54.61;102419.28;6120945;23;20568;-62
2021/10/30 11:00:06;;;;;;;35.10;27.53;;;;;;;15.60;54.47;102418.72;6120708;23;20189;-63
2021/10/30 11:02:37;;;;;;;35.57;28.13;;;;;;;15.24;54.28;102395.31;6095341;23;20154;-63
2021/10/30 11:05:08;;;;;;;41.27;28.23;;;;;;;15.43;54.72;102425.41;6094820;23;20154;-62
2021/10/30 11:07:35;;;;;;;34.33;26.40;;;;;;;15.55;54.31;102424.78;6120337;23;20161;-63
2021/10/30 11:10:01;;;;;;;40.23;27.57;;;;;;;15.65;54.19;102416.25;6121060;23;20163;-62
2021/10/30 11:12:28;;;;;;;43.17;28.20;;;;;;;15.71;54.50;102422.94;6095069;23;20165;-63
2021/10/30 11:15:06;;;;;;;37.43;28.47;;;;;;;15.74;53.97;102421.31;6120355;23;20551;-63
2021/10/30 11:17:57;;;;;;;37.93;29.00;;;;;;;15.74;54.47;102418.50;6120434;23;20220;-62